Terminal Aerodrome Forecast
Issued by NWS

Home | Current Version | Previous Version | Text Only | Print | Product List | Glossary On
Versions: 1 2 3 4 5 6 7 8 9 10 11 12 13 14 15 16 17 18 19
000
FTUS42 KTBW 261323 AAB
TAFPGD
TAF AMD
KPGD 261323Z 2613/2712 VRB03KT P6SM SCT003 SCT250
      TEMPO 2613/2614 2SM BR BKN003
     FM261500 VRB04KT P6SM FEW040
     FM261900 27008KT P6SM SCT050 SCT250
     FM270200 VRB03KT P6SM SCT250=

USA.gov is the U.S. government's official web portal to all federal, state and local government web resources and services.